createdAt,value
2017-12-17T00:00:04.402Z,5.97
2017-12-17T00:00:30.507Z,5.99
2017-12-17T00:00:56.603Z,5.98
2017-12-17T00:01:22.701Z,6.09
2017-12-17T00:01:48.802Z,6.12
2017-12-17T00:02:14.900Z,6.07
2017-12-17T00:02:41.007Z,5.94
2017-12-17T00:03:07.104Z,5.97
2017-12-17T00:03:33.207Z,5.97
2017-12-17T00:03:59.340Z,6.01
2017-12-17T00:04:25.464Z,5.87
2017-12-17T00:04:51.584Z,5.89
2017-12-17T00:05:17.688Z,5.93
2017-12-17T00:05:43.788Z,5.98
2017-12-17T00:06:09.884Z,5.99
2017-12-17T00:06:36.001Z,6.05
2017-12-17T00:07:02.103Z,5.84
2017-12-17T00:07:28.204Z,5.99
2017-12-17T00:07:54.306Z,6.08
2017-12-17T00:08:20.407Z,5.99
2017-12-17T00:08:46.507Z,6.02
2017-12-17T00:09:12.608Z,6.02
2017-12-17T00:09:38.730Z,6.05
2017-12-17T00:10:04.825Z,6.08
2017-12-17T00:10:30.946Z,6.02
2017-12-17T00:10:57.031Z,6.04
2017-12-17T00:11:23.133Z,5.83
2017-12-17T00:11:49.235Z,5.97
2017-12-17T00:12:15.337Z,6.07
2017-12-17T00:12:41.436Z,6.02
2017-12-17T00:13:07.580Z,5.98
2017-12-17T00:13:33.682Z,6.02
2017-12-17T00:13:59.782Z,5.99
2017-12-17T00:14:25.880Z,6.04
2017-12-17T00:14:51.991Z,6.12
2017-12-17T00:15:18.084Z,6.11
2017-12-17T00:15:44.180Z,6.22
2017-12-17T00:16:10.278Z,6.14
2017-12-17T00:16:36.390Z,6.19
2017-12-17T00:17:02.489Z,6.14
2017-12-17T00:17:28.584Z,6.12
2017-12-17T00:17:54.687Z,6.27
2017-12-17T00:18:20.788Z,6.14
2017-12-17T00:18:46.911Z,6.04
2017-12-17T00:19:13.001Z,6.02
2017-12-17T00:19:39.102Z,6.08
2017-12-17T00:20:05.204Z,6.08
2017-12-17T00:20:31.305Z,6.05
2017-12-17T00:20:57.411Z,6.02
2017-12-17T00:21:23.514Z,6.05
2017-12-17T00:21:49.614Z,6.08
2017-12-17T00:22:15.719Z,6.16
2017-12-17T00:22:41.816Z,6.19
2017-12-17T00:23:07.917Z,6.24
2017-12-17T00:23:34.012Z,6.14
2017-12-17T00:24:00.115Z,6.24
2017-12-17T00:24:26.213Z,6.26
2017-12-17T00:24:52.342Z,6.45
2017-12-17T00:25:18.451Z,6.49
2017-12-17T00:25:44.549Z,6.6
2017-12-17T00:26:10.649Z,6.56
2017-12-17T00:26:36.753Z,6.63
2017-12-17T00:27:02.853Z,6.56
2017-12-17T00:27:28.955Z,6.62
2017-12-17T00:27:55.060Z,6.72
2017-12-17T00:28:21.166Z,6.7
2017-12-17T00:28:47.277Z,6.57
2017-12-17T00:29:13.370Z,6.63
2017-12-17T00:29:39.474Z,6.54
2017-12-17T00:30:05.581Z,6.54
2017-12-17T00:30:31.675Z,6.72
2017-12-17T00:30:57.813Z,6.57
2017-12-17T00:31:23.911Z,6.44
2017-12-17T00:31:50.019Z,6.6
2017-12-17T00:32:16.121Z,6.57
2017-12-17T00:32:42.226Z,6.56
2017-12-17T00:33:08.326Z,6.44
2017-12-17T00:33:34.431Z,6.48
2017-12-17T00:34:00.530Z,6.48
2017-12-17T00:34:26.624Z,6.42
2017-12-17T00:34:52.732Z,6.31
2017-12-17T00:35:18.830Z,6.27
2017-12-17T00:35:44.952Z,6.2
2017-12-17T00:36:11.052Z,6.35
2017-12-17T00:36:37.160Z,6.12
2017-12-17T00:37:03.254Z,6.24
2017-12-17T00:37:29.359Z,6.14
2017-12-17T00:37:55.457Z,6.28
2017-12-17T00:38:21.561Z,6.19
2017-12-17T00:38:47.672Z,6.01
2017-12-17T00:39:13.758Z,6.05
2017-12-17T00:39:39.862Z,6.04
2017-12-17T00:40:05.972Z,6.05
2017-12-17T00:40:32.079Z,6.09
2017-12-17T00:40:58.175Z,6.07
2017-12-17T00:41:24.290Z,6.08
2017-12-17T00:41:50.396Z,6.07
2017-12-17T00:42:16.498Z,5.93
2017-12-17T00:42:42.618Z,6.07
2017-12-17T00:43:08.710Z,6.07
2017-12-17T00:43:34.816Z,6.12
2017-12-17T00:44:00.915Z,6.07
2017-12-17T00:44:27.020Z,6.04
2017-12-17T00:44:53.134Z,5.93
2017-12-17T00:45:19.233Z,5.98
2017-12-17T00:45:45.351Z,5.93
2017-12-17T00:46:11.471Z,5.98
2017-12-17T00:46:37.577Z,5.79
2017-12-17T00:47:03.675Z,5.79
2017-12-17T00:47:29.773Z,5.83
2017-12-17T00:47:55.874Z,5.8
2017-12-17T00:48:21.969Z,5.79
2017-12-17T00:48:48.075Z,5.72
2017-12-17T00:49:14.177Z,5.82
2017-12-17T00:49:40.269Z,5.71
2017-12-17T00:50:06.371Z,5.79
2017-12-17T00:50:32.476Z,5.71
2017-12-17T00:50:58.575Z,5.8
2017-12-17T00:51:24.672Z,5.8
2017-12-17T00:51:50.778Z,5.75
2017-12-17T00:52:16.882Z,5.76
2017-12-17T00:52:42.974Z,5.71
2017-12-17T00:53:09.073Z,5.76
2017-12-17T00:53:35.178Z,5.68
2017-12-17T00:54:01.275Z,5.68
2017-12-17T00:54:27.394Z,5.68
2017-12-17T00:54:53.493Z,5.82
2017-12-17T00:55:19.613Z,5.79
2017-12-17T00:55:45.705Z,5.75
2017-12-17T00:56:11.825Z,5.79
2017-12-17T00:56:37.921Z,5.76
2017-12-17T00:57:04.021Z,5.64
2017-12-17T00:57:30.141Z,5.79
2017-12-17T00:57:56.240Z,5.68
2017-12-17T00:58:22.358Z,5.79
2017-12-17T00:58:48.458Z,5.71
2017-12-17T00:59:14.554Z,5.66
2017-12-17T00:59:40.661Z,5.65
2017-12-17T01:00:06.755Z,5.71
2017-12-17T01:00:32.855Z,5.72
2017-12-17T01:00:58.959Z,5.76
2017-12-17T01:01:25.061Z,5.82
2017-12-17T01:01:51.160Z,5.73
2017-12-17T01:02:17.257Z,5.72
2017-12-17T01:02:43.361Z,5.69
2017-12-17T01:03:09.464Z,5.62
2017-12-17T01:03:35.563Z,5.64
2017-12-17T01:04:01.666Z,5.71
2017-12-17T01:04:27.761Z,5.64
2017-12-17T01:04:53.870Z,5.65
2017-12-17T01:05:19.980Z,5.68
2017-12-17T01:05:46.080Z,5.66
2017-12-17T01:06:12.186Z,5.68
2017-12-17T01:06:38.281Z,5.69
2017-12-17T01:07:04.386Z,5.68
2017-12-17T01:07:30.495Z,5.62
2017-12-17T01:07:56.598Z,5.68
2017-12-17T01:08:22.704Z,5.68
2017-12-17T01:08:48.813Z,5.71
2017-12-17T01:09:14.910Z,5.76
2017-12-17T01:09:41.007Z,5.59
2017-12-17T01:10:07.114Z,5.59
2017-12-17T01:10:33.215Z,5.53
2017-12-17T01:10:59.313Z,5.47
2017-12-17T01:11:25.413Z,5.43
2017-12-17T01:11:51.533Z,5.5
2017-12-17T01:12:17.632Z,5.51
2017-12-17T01:12:43.734Z,5.47
2017-12-17T01:13:09.837Z,5.35
2017-12-17T01:13:35.931Z,5.43
2017-12-17T01:14:02.047Z,5.35
2017-12-17T01:14:28.144Z,5.39
2017-12-17T01:14:54.241Z,5.38
2017-12-17T01:15:20.364Z,5.39
2017-12-17T01:15:46.458Z,5.39
2017-12-17T01:16:12.555Z,5.39
2017-12-17T01:16:38.658Z,5.41
2017-12-17T01:17:04.763Z,5.39
2017-12-17T01:17:30.862Z,5.38
2017-12-17T01:17:56.965Z,5.35
2017-12-17T01:18:23.064Z,5.33
2017-12-17T01:18:49.184Z,5.29
2017-12-17T01:19:15.278Z,5.36
2017-12-17T01:19:41.383Z,5.39
2017-12-17T01:20:07.477Z,5.3
2017-12-17T01:20:33.581Z,5.41
2017-12-17T01:20:59.681Z,5.39
2017-12-17T01:21:25.775Z,5.39
2017-12-17T01:21:51.879Z,5.32
2017-12-17T01:22:17.982Z,5.35
2017-12-17T01:22:44.080Z,5.35
2017-12-17T01:23:10.175Z,5.39
2017-12-17T01:23:36.283Z,5.39
2017-12-17T01:24:02.381Z,5.39
2017-12-17T01:24:28.477Z,5.39
2017-12-17T01:24:54.579Z,5.39
2017-12-17T01:25:20.679Z,5.41
2017-12-17T01:25:46.778Z,5.38
2017-12-17T01:26:12.874Z,5.43
2017-12-17T01:26:38.974Z,5.38
2017-12-17T01:27:05.082Z,5.36
2017-12-17T01:27:31.200Z,5.48
2017-12-17T01:27:57.298Z,5.5
2017-12-17T01:28:23.392Z,5.36
2017-12-17T01:28:49.512Z,5.39
2017-12-17T01:29:15.615Z,5.5
2017-12-17T01:29:41.715Z,5.39
2017-12-17T01:30:07.829Z,5.35
2017-12-17T01:30:33.930Z,5.35
2017-12-17T01:31:00.032Z,5.35
2017-12-17T01:31:26.132Z,5.33
2017-12-17T01:31:52.234Z,5.57
2017-12-17T01:32:18.340Z,5.69
2017-12-17T01:32:44.443Z,5.79
2017-12-17T01:33:10.534Z,6.01
2017-12-17T01:33:36.649Z,6.05
2017-12-17T01:34:02.755Z,6.07
2017-12-17T01:34:28.855Z,6.02
2017-12-17T01:34:54.948Z,6.07
2017-12-17T01:35:21.057Z,5.98
2017-12-17T01:35:47.146Z,6.01
2017-12-17T01:36:13.249Z,5.99
2017-12-17T01:36:39.354Z,6.02
2017-12-17T01:37:05.472Z,5.97
2017-12-17T01:37:31.576Z,5.99
2017-12-17T01:37:57.677Z,6.01
2017-12-17T01:38:23.768Z,5.99
2017-12-17T01:38:49.867Z,6.02
2017-12-17T01:39:15.965Z,6.04
2017-12-17T01:39:42.071Z,6.2
2017-12-17T01:40:08.170Z,6.14
2017-12-17T01:40:34.268Z,6.02
2017-12-17T01:41:00.373Z,6.02
2017-12-17T01:41:26.475Z,6.01
2017-12-17T01:41:52.573Z,6.01
2017-12-17T01:42:18.668Z,6.01
2017-12-17T01:42:44.771Z,6.04
2017-12-17T01:43:10.872Z,6.09
2017-12-17T01:43:36.965Z,6.17
2017-12-17T01:44:03.078Z,6.12
2017-12-17T01:44:29.164Z,6.12
2017-12-17T01:44:55.270Z,6.11
2017-12-17T01:45:21.362Z,6.11
2017-12-17T01:45:53.740Z,6.08
2017-12-17T01:46:19.833Z,6.14
2017-12-17T01:46:45.934Z,6.11
2017-12-17T01:47:12.029Z,6.09
2017-12-17T01:47:38.146Z,6.01
2017-12-17T01:48:04.244Z,5.97
2017-12-17T01:48:30.341Z,5.87
2017-12-17T01:48:56.445Z,5.84
2017-12-17T01:49:22.549Z,5.87
2017-12-17T01:49:48.645Z,5.83
2017-12-17T01:50:14.775Z,5.84
2017-12-17T01:50:40.882Z,5.91
2017-12-17T01:51:06.974Z,5.98
2017-12-17T01:51:33.079Z,5.89
2017-12-17T01:51:59.174Z,5.94
2017-12-17T01:52:25.280Z,5.89
2017-12-17T01:52:51.379Z,6.01
2017-12-17T01:53:17.472Z,5.94
2017-12-17T01:53:43.575Z,5.94
2017-12-17T01:54:09.677Z,5.89
2017-12-17T01:54:35.792Z,5.87
2017-12-17T01:55:01.913Z,5.89
2017-12-17T01:55:28.008Z,5.87
2017-12-17T01:55:54.110Z,5.91
2017-12-17T01:56:20.209Z,5.97
2017-12-17T01:56:46.327Z,5.83
2017-12-17T01:57:12.428Z,5.83
2017-12-17T01:57:38.528Z,5.93
2017-12-17T01:58:04.617Z,5.83
2017-12-17T01:58:30.718Z,5.86
2017-12-17T01:58:56.823Z,5.79
2017-12-17T01:59:22.943Z,5.79
2017-12-17T01:59:49.044Z,5.79
2017-12-17T02:00:15.146Z,5.75
2017-12-17T02:00:41.241Z,5.79
2017-12-17T02:01:07.343Z,5.73
2017-12-17T02:01:33.435Z,5.69
2017-12-17T02:01:59.557Z,5.71
2017-12-17T02:02:25.656Z,5.75
2017-12-17T02:02:51.760Z,5.71
2017-12-17T02:03:17.857Z,5.69
2017-12-17T02:03:43.964Z,5.66
2017-12-17T02:04:10.064Z,5.71
2017-12-17T02:04:36.162Z,5.79
2017-12-17T02:05:02.268Z,5.65
2017-12-17T02:05:28.388Z,5.68
2017-12-17T02:05:54.460Z,5.62
2017-12-17T02:06:20.564Z,5.68
2017-12-17T02:06:46.666Z,5.68
2017-12-17T02:07:12.765Z,5.71
2017-12-17T02:07:38.866Z,5.64
2017-12-17T02:08:04.961Z,5.71
2017-12-17T02:08:31.066Z,5.72
2017-12-17T02:08:57.161Z,5.71
2017-12-17T02:09:23.260Z,5.69
2017-12-17T02:09:49.362Z,5.57
2017-12-17T02:10:15.459Z,5.64
2017-12-17T02:10:41.562Z,5.68
2017-12-17T02:11:07.665Z,5.56
2017-12-17T02:11:33.758Z,5.66
2017-12-17T02:11:59.861Z,5.62
2017-12-17T02:12:25.957Z,5.5
2017-12-17T02:12:52.055Z,5.59
2017-12-17T02:13:18.156Z,5.54
2017-12-17T02:13:44.253Z,5.35
2017-12-17T02:14:10.353Z,5.38
2017-12-17T02:14:36.456Z,5.39
2017-12-17T02:15:02.554Z,5.39
2017-12-17T02:15:28.659Z,5.33
2017-12-17T02:15:54.759Z,5.36
2017-12-17T02:16:20.852Z,5.38
2017-12-17T02:16:46.956Z,5.38
2017-12-17T02:17:13.076Z,5.51
2017-12-17T02:17:39.170Z,5.53
2017-12-17T02:18:05.264Z,5.53
2017-12-17T02:18:31.364Z,5.53
2017-12-17T02:18:57.468Z,5.48
2017-12-17T02:19:23.572Z,5.47
2017-12-17T02:19:49.691Z,5.54
2017-12-17T02:20:15.789Z,5.47
2017-12-17T02:20:41.891Z,5.53
2017-12-17T02:21:07.986Z,5.56
2017-12-17T02:21:34.084Z,5.47
2017-12-17T02:22:00.190Z,5.38
2017-12-17T02:22:26.285Z,5.47
2017-12-17T02:22:52.390Z,5.44
2017-12-17T02:23:18.482Z,5.56
2017-12-17T02:23:44.578Z,5.36
2017-12-17T02:24:10.680Z,5.41
2017-12-17T02:24:36.783Z,5.51
2017-12-17T02:25:02.886Z,5.54
2017-12-17T02:25:28.979Z,5.43
2017-12-17T02:25:55.083Z,5.5
2017-12-17T02:26:21.177Z,5.35
2017-12-17T02:26:47.274Z,5.5
2017-12-17T02:27:13.372Z,5.35
2017-12-17T02:27:39.472Z,5.36
2017-12-17T02:28:05.576Z,5.33
2017-12-17T02:28:31.674Z,5.57
2017-12-17T02:28:57.777Z,5.54
2017-12-17T02:29:23.891Z,5.53
2017-12-17T02:29:49.995Z,5.56
2017-12-17T02:30:16.114Z,5.54
2017-12-17T02:30:42.213Z,5.57
2017-12-17T02:31:08.313Z,5.61
2017-12-17T02:31:34.428Z,5.57
2017-12-17T02:32:00.532Z,5.54
2017-12-17T02:32:26.643Z,5.54
2017-12-17T02:32:52.744Z,5.5
2017-12-17T02:33:18.846Z,5.54
2017-12-17T02:33:44.940Z,5.36
2017-12-17T02:34:11.044Z,5.53
2017-12-17T02:34:37.141Z,5.48
2017-12-17T02:35:03.241Z,5.48
2017-12-17T02:35:29.346Z,5.51
2017-12-17T02:35:55.441Z,5.47
2017-12-17T02:36:21.538Z,5.36
2017-12-17T02:36:47.636Z,5.38
2017-12-17T02:37:13.734Z,5.39
2017-12-17T02:37:39.845Z,5.41
2017-12-17T02:38:05.944Z,5.39
2017-12-17T02:38:32.042Z,5.35
2017-12-17T02:38:58.143Z,5.35
2017-12-17T02:39:24.251Z,5.43
2017-12-17T02:39:50.342Z,5.36
2017-12-17T02:40:16.449Z,5.38
2017-12-17T02:40:42.542Z,5.53
2017-12-17T02:41:08.643Z,5.53
2017-12-17T02:41:34.741Z,5.53
2017-12-17T02:42:00.837Z,5.68
2017-12-17T02:42:26.936Z,5.59
2017-12-17T02:42:53.035Z,5.59
2017-12-17T02:43:19.145Z,5.51
2017-12-17T02:43:45.259Z,5.56
2017-12-17T02:44:11.356Z,5.57
2017-12-17T02:44:37.459Z,5.51
2017-12-17T02:45:03.562Z,5.56
2017-12-17T02:45:29.651Z,5.56
2017-12-17T02:45:55.752Z,5.47
2017-12-17T02:46:21.851Z,5.51
2017-12-17T02:46:47.955Z,5.53
2017-12-17T02:47:14.073Z,5.48
2017-12-17T02:47:40.172Z,5.38
2017-12-17T02:48:06.271Z,5.39
2017-12-17T02:48:32.385Z,5.43
2017-12-17T02:48:58.505Z,5.36
2017-12-17T02:49:24.608Z,5.41
2017-12-17T02:49:50.704Z,5.35
2017-12-17T02:50:16.832Z,5.3
2017-12-17T02:50:42.922Z,5.41
2017-12-17T02:51:09.042Z,5.38
2017-12-17T02:51:35.138Z,5.3
2017-12-17T02:52:01.237Z,5.32
2017-12-17T02:52:27.343Z,5.32
2017-12-17T02:52:53.510Z,5.33
2017-12-17T02:53:19.544Z,5.28
2017-12-17T02:53:45.643Z,5.28
2017-12-17T02:54:11.737Z,5.35
2017-12-17T02:54:37.840Z,5.25
2017-12-17T02:55:03.937Z,5.35
2017-12-17T02:55:30.032Z,5.32
2017-12-17T02:55:56.131Z,5.33
2017-12-17T02:56:22.236Z,5.3
2017-12-17T02:56:48.349Z,5.33
2017-12-17T02:57:14.479Z,5.35
2017-12-17T02:57:40.582Z,5.28
2017-12-17T02:58:06.678Z,5.32
2017-12-17T02:58:32.783Z,5.3
2017-12-17T02:58:58.877Z,5.36
2017-12-17T02:59:24.974Z,5.23
2017-12-17T02:59:51.072Z,5.28
2017-12-17T03:00:17.168Z,5.3
2017-12-17T03:00:43.268Z,5.26
2017-12-17T03:01:09.370Z,5.28
2017-12-17T03:01:35.470Z,5.3
2017-12-17T03:02:01.564Z,5.35
2017-12-17T03:02:27.684Z,5.3
2017-12-17T03:02:53.796Z,5.3
2017-12-17T03:03:19.885Z,5.32
2017-12-17T03:03:45.989Z,5.38
2017-12-17T03:04:12.089Z,5.33
2017-12-17T03:04:38.188Z,5.32
2017-12-17T03:05:04.290Z,5.33
2017-12-17T03:05:30.382Z,5.35
2017-12-17T03:05:56.486Z,5.33
2017-12-17T03:06:22.583Z,5.33
2017-12-17T03:06:48.688Z,5.36
2017-12-17T03:07:14.780Z,5.39
2017-12-17T03:07:40.893Z,5.33
2017-12-17T03:08:07.000Z,5.3
2017-12-17T03:08:33.100Z,5.3
2017-12-17T03:08:59.204Z,5.36
2017-12-17T03:09:25.322Z,5.35
2017-12-17T03:09:51.415Z,5.39
2017-12-17T03:10:17.535Z,5.39
2017-12-17T03:10:43.631Z,5.44
2017-12-17T03:11:09.730Z,5.38
2017-12-17T03:11:35.835Z,5.36
2017-12-17T03:12:01.932Z,5.36
2017-12-17T03:12:28.035Z,5.38
2017-12-17T03:12:54.133Z,5.35
2017-12-17T03:13:20.233Z,5.35
2017-12-17T03:13:46.338Z,5.2
2017-12-17T03:14:12.433Z,5.28
2017-12-17T03:14:38.531Z,5.32
2017-12-17T03:15:04.637Z,5.32
2017-12-17T03:15:30.730Z,5.32
2017-12-17T03:15:56.833Z,5.3
2017-12-17T03:16:22.934Z,5.3
2017-12-17T03:16:49.031Z,5.32
2017-12-17T03:17:15.133Z,5.25
2017-12-17T03:17:41.227Z,5.14
2017-12-17T03:18:07.324Z,5.15
2017-12-17T03:18:33.431Z,5.11
2017-12-17T03:18:59.542Z,5.17
2017-12-17T03:19:25.644Z,5.18
2017-12-17T03:19:51.748Z,5.25
2017-12-17T03:20:17.843Z,5.29
2017-12-17T03:20:43.946Z,5.26
2017-12-17T03:21:10.040Z,5.23
2017-12-17T03:21:36.222Z,5.29
2017-12-17T03:22:02.252Z,5.33
2017-12-17T03:22:28.350Z,5.33
2017-12-17T03:22:54.452Z,5.3
2017-12-17T03:23:20.558Z,5.29
2017-12-17T03:23:46.654Z,5.29
2017-12-17T03:24:12.751Z,5.21
2017-12-17T03:24:38.856Z,5.28
2017-12-17T03:25:04.950Z,5.26
2017-12-17T03:25:31.053Z,5.18
2017-12-17T03:25:57.149Z,5.2
2017-12-17T03:26:23.251Z,5.15
2017-12-17T03:26:49.355Z,5.15
2017-12-17T03:27:15.451Z,5.17
2017-12-17T03:27:41.551Z,5.12
2017-12-17T03:28:07.649Z,5.15
2017-12-17T03:28:33.753Z,5.04
2017-12-17T03:28:59.848Z,5.14
2017-12-17T03:29:25.947Z,5.15
2017-12-17T03:29:52.067Z,5.11
2017-12-17T03:30:18.162Z,5.12
2017-12-17T03:30:44.267Z,5.08
2017-12-17T03:31:10.363Z,5.11
2017-12-17T03:31:36.464Z,4.99
2017-12-17T03:32:02.567Z,5.04
2017-12-17T03:32:28.682Z,4.99
2017-12-17T03:32:54.784Z,5.02
2017-12-17T03:33:20.883Z,5.04
2017-12-17T03:33:46.984Z,5.05
2017-12-17T03:34:13.080Z,5.08
2017-12-17T03:34:39.179Z,5.08
2017-12-17T03:35:05.277Z,5.04
2017-12-17T03:35:31.374Z,5.04
2017-12-17T03:35:57.477Z,5.05
2017-12-17T03:36:23.581Z,5.18
2017-12-17T03:36:49.699Z,5.15
2017-12-17T03:37:15.796Z,5.11
2017-12-17T03:37:41.901Z,5.18
2017-12-17T03:38:08.000Z,5.08
2017-12-17T03:38:34.093Z,5.08
2017-12-17T03:39:00.208Z,4.99
2017-12-17T03:39:26.308Z,5.02
2017-12-17T03:39:52.435Z,5.08
2017-12-17T03:40:18.541Z,5.11
2017-12-17T03:40:44.638Z,5.07
2017-12-17T03:41:10.742Z,5.07
2017-12-17T03:41:36.843Z,5.15
2017-12-17T03:42:02.936Z,5.02
2017-12-17T03:42:29.038Z,5.14
2017-12-17T03:42:55.141Z,5.23
2017-12-17T03:43:21.237Z,5.26
2017-12-17T03:43:47.340Z,5.12
2017-12-17T03:44:13.434Z,5.02
2017-12-17T03:44:39.536Z,5
2017-12-17T03:45:05.631Z,5.02
2017-12-17T03:45:31.736Z,5.08
2017-12-17T03:45:57.836Z,5.08
2017-12-17T03:46:23.936Z,5.1
2017-12-17T03:46:50.028Z,5.05
2017-12-17T03:47:16.131Z,5.15
2017-12-17T03:47:42.226Z,5.23
2017-12-17T03:48:08.327Z,5.17
2017-12-17T03:48:34.436Z,5.14
2017-12-17T03:49:00.544Z,5.12
2017-12-17T03:49:26.661Z,5.14
2017-12-17T03:49:52.783Z,5.08
2017-12-17T03:50:18.876Z,4.99
2017-12-17T03:50:44.979Z,5.05
2017-12-17T03:51:11.083Z,5.11
2017-12-17T03:51:37.186Z,5.12
2017-12-17T03:52:03.311Z,5.04
2017-12-17T03:52:29.426Z,5.11
2017-12-17T03:52:55.526Z,5.11
2017-12-17T03:53:21.623Z,5.1
2017-12-17T03:53:47.726Z,5.02
2017-12-17T03:54:13.823Z,5.11
2017-12-17T03:54:39.926Z,5.04
2017-12-17T03:55:06.028Z,5.1
2017-12-17T03:55:32.130Z,5.11
2017-12-17T03:55:58.226Z,5.08
2017-12-17T03:56:24.324Z,5.08
2017-12-17T03:56:50.442Z,5.08
2017-12-17T03:57:16.539Z,5.07
2017-12-17T03:57:42.638Z,5.1
2017-12-17T03:58:08.737Z,5.11
2017-12-17T03:58:34.867Z,5.05
2017-12-17T03:59:00.968Z,5.2
2017-12-17T03:59:27.063Z,5.15
2017-12-17T03:59:53.161Z,5.11
2017-12-17T04:00:19.259Z,5.07
2017-12-17T04:00:45.373Z,5.07
2017-12-17T04:01:11.473Z,5.14
2017-12-17T04:01:37.580Z,5.15
2017-12-17T04:02:03.679Z,5.12
2017-12-17T04:02:29.784Z,5.11
2017-12-17T04:02:55.885Z,5.12
2017-12-17T04:03:21.981Z,5.07
2017-12-17T04:03:48.102Z,5.05
2017-12-17T04:04:14.197Z,5.1
2017-12-17T04:04:40.302Z,5
2017-12-17T04:05:06.402Z,5.1
2017-12-17T04:05:32.497Z,5.04
2017-12-17T04:05:58.600Z,5.1
2017-12-17T04:06:24.696Z,5.11
2017-12-17T04:06:50.800Z,5.14
2017-12-17T04:07:16.899Z,5.05
2017-12-17T04:07:42.994Z,5.07
2017-12-17T04:08:09.112Z,5.05
2017-12-17T04:08:35.208Z,5.08
2017-12-17T04:09:01.311Z,5.1
2017-12-17T04:09:27.408Z,5.02
2017-12-17T04:09:53.511Z,5.07
2017-12-17T04:10:19.622Z,5.02
2017-12-17T04:10:45.732Z,5.1
2017-12-17T04:11:11.841Z,5.12
2017-12-17T04:11:37.946Z,5.15
2017-12-17T04:12:04.047Z,5.08
2017-12-17T04:12:30.142Z,5.07
2017-12-17T04:12:56.246Z,5.1
2017-12-17T04:13:22.343Z,5.1
2017-12-17T04:13:48.438Z,5.08
2017-12-17T04:14:14.537Z,5.08
2017-12-17T04:14:40.636Z,5.1
2017-12-17T04:15:06.740Z,5.12
2017-12-17T04:15:32.835Z,5.08
2017-12-17T04:15:58.935Z,5.12
2017-12-17T04:16:25.036Z,5.1
2017-12-17T04:16:51.128Z,5.05
2017-12-17T04:17:17.236Z,5.1
2017-12-17T04:17:43.328Z,5.1
2017-12-17T04:18:09.430Z,5.04
2017-12-17T04:18:35.524Z,5.11
2017-12-17T04:19:01.630Z,5.08
2017-12-17T04:19:27.729Z,5.12
2017-12-17T04:19:53.825Z,5.02
2017-12-17T04:20:19.940Z,5.02
2017-12-17T04:20:46.040Z,5.02
2017-12-17T04:21:12.171Z,5.08
2017-12-17T04:21:38.288Z,5.1
2017-12-17T04:22:04.397Z,5.08
2017-12-17T04:22:30.516Z,5.02
2017-12-17T04:22:56.619Z,5.14
2017-12-17T04:23:22.718Z,5.05
2017-12-17T04:23:48.814Z,5.1
2017-12-17T04:24:14.911Z,4.97
2017-12-17T04:24:41.013Z,5.1
2017-12-17T04:25:07.108Z,5.04
2017-12-17T04:25:33.214Z,5.08
2017-12-17T04:25:59.313Z,5.15
2017-12-17T04:26:25.413Z,5.07
2017-12-17T04:26:51.507Z,5.11
2017-12-17T04:27:17.607Z,5.12
2017-12-17T04:27:43.707Z,5.07
2017-12-17T04:28:09.807Z,5.02
2017-12-17T04:28:35.903Z,5.02
2017-12-17T04:29:02.006Z,5.05
2017-12-17T04:29:28.105Z,5.04
2017-12-17T04:29:54.205Z,5.08
2017-12-17T04:30:20.309Z,5.04
2017-12-17T04:30:46.407Z,5.12
2017-12-17T04:31:12.508Z,5.15
2017-12-17T04:31:38.604Z,5.2
2017-12-17T04:32:04.706Z,5.15
2017-12-17T04:32:30.801Z,5.12
2017-12-17T04:32:56.906Z,5.12
2017-12-17T04:33:23.002Z,5.05
2017-12-17T04:33:49.106Z,5
2017-12-17T04:34:15.201Z,5.07
2017-12-17T04:34:41.303Z,5.15
2017-12-17T04:35:07.400Z,5.08
2017-12-17T04:35:33.499Z,5.12
2017-12-17T04:35:59.600Z,5.07
2017-12-17T04:36:25.700Z,5.12
2017-12-17T04:36:51.800Z,5.05
2017-12-17T04:37:17.902Z,5.08
2017-12-17T04:37:43.997Z,5.08
2017-12-17T04:38:10.106Z,5.04
2017-12-17T04:38:36.195Z,5.15
2017-12-17T04:39:02.294Z,5.05
2017-12-17T04:39:28.394Z,5.14
2017-12-17T04:39:54.525Z,5.05
2017-12-17T04:40:20.600Z,5.14
2017-12-17T04:40:46.695Z,5.05
2017-12-17T04:41:12.797Z,5.12
2017-12-17T04:41:38.893Z,4.96
2017-12-17T04:42:04.993Z,4.99
2017-12-17T04:42:31.094Z,5.02
2017-12-17T04:42:57.192Z,5
2017-12-17T04:43:23.288Z,5.05
2017-12-17T04:43:49.391Z,4.96
2017-12-17T04:44:15.512Z,5.02
2017-12-17T04:44:41.587Z,5.02
2017-12-17T04:45:07.686Z,5.04
2017-12-17T04:45:33.780Z,5.07
2017-12-17T04:45:59.878Z,4.94
2017-12-17T04:46:26.016Z,5.02
2017-12-17T04:46:52.120Z,5
2017-12-17T04:47:18.237Z,5.11
2017-12-17T04:47:44.338Z,5.1
2017-12-17T04:48:10.456Z,5.1
2017-12-17T04:48:36.557Z,5.04
2017-12-17T04:49:02.649Z,5.04
2017-12-17T04:49:28.751Z,5.02
2017-12-17T04:49:54.852Z,4.96
2017-12-17T04:50:20.954Z,5.05
2017-12-17T04:50:47.047Z,5.05
2017-12-17T04:51:13.151Z,5.02
2017-12-17T04:51:39.264Z,4.97
2017-12-17T04:52:05.370Z,5.02
2017-12-17T04:52:31.467Z,5.05
2017-12-17T04:52:57.596Z,5.02
2017-12-17T04:53:23.730Z,4.94
2017-12-17T04:53:49.832Z,5.05
2017-12-17T04:54:15.928Z,5.02
2017-12-17T04:54:42.027Z,4.92
2017-12-17T04:55:08.131Z,4.93
2017-12-17T04:55:34.252Z,4.93
2017-12-17T04:56:00.367Z,5
2017-12-17T04:56:26.468Z,4.99
2017-12-17T04:56:52.566Z,5
2017-12-17T04:57:18.660Z,4.89
2017-12-17T04:57:44.780Z,4.93
2017-12-17T04:58:10.878Z,4.93
2017-12-17T04:58:36.985Z,4.92
2017-12-17T04:59:03.085Z,5.04
2017-12-17T04:59:29.182Z,4.93
2017-12-17T04:59:55.280Z,4.99
2017-12-17T05:00:21.385Z,5
2017-12-17T05:00:47.478Z,5
2017-12-17T05:01:13.579Z,5.04
2017-12-17T05:01:39.675Z,4.93
2017-12-17T05:02:05.771Z,4.89
2017-12-17T05:02:31.867Z,4.92
2017-12-17T05:02:57.971Z,4.99
2017-12-17T05:03:24.072Z,4.78
2017-12-17T05:03:50.168Z,4.86
2017-12-17T05:04:16.271Z,4.8
2017-12-17T05:04:42.365Z,4.8
2017-12-17T05:05:08.465Z,4.8
2017-12-17T05:05:34.568Z,4.77
2017-12-17T05:06:00.665Z,4.75
2017-12-17T05:06:26.774Z,4.75
2017-12-17T05:06:52.867Z,4.74
2017-12-17T05:07:18.965Z,4.71
2017-12-17T05:07:45.062Z,4.75
2017-12-17T05:08:11.161Z,4.84
2017-12-17T05:08:37.259Z,4.8
2017-12-17T05:09:03.375Z,4.78
2017-12-17T05:09:29.477Z,4.93
2017-12-17T05:09:55.571Z,4.93
2017-12-17T05:10:21.673Z,4.93
2017-12-17T05:10:47.771Z,4.87
2017-12-17T05:11:13.873Z,4.86
2017-12-17T05:11:39.975Z,4.94
2017-12-17T05:12:06.072Z,4.92
2017-12-17T05:12:32.178Z,4.8
2017-12-17T05:12:58.279Z,4.82
2017-12-17T05:13:24.395Z,4.75
2017-12-17T05:13:50.492Z,4.82
2017-12-17T05:14:16.616Z,4.86
2017-12-17T05:14:42.713Z,4.92
2017-12-17T05:15:08.815Z,4.93
2017-12-17T05:15:34.917Z,4.93
2017-12-17T05:16:01.013Z,4.96
2017-12-17T05:16:27.116Z,4.92
2017-12-17T05:16:53.211Z,4.94
2017-12-17T05:17:19.305Z,4.93
2017-12-17T05:17:45.408Z,4.89
2017-12-17T05:18:11.502Z,4.87
2017-12-17T05:18:37.603Z,4.82
2017-12-17T05:19:03.711Z,4.86
2017-12-17T05:19:29.820Z,4.82
2017-12-17T05:19:55.918Z,4.87
2017-12-17T05:20:22.022Z,4.89
2017-12-17T05:20:48.124Z,4.92
2017-12-17T05:21:14.221Z,4.93
2017-12-17T05:21:40.325Z,4.9
2017-12-17T05:22:06.424Z,4.9
2017-12-17T05:22:32.519Z,5
2017-12-17T05:22:58.622Z,4.9
2017-12-17T05:23:24.724Z,5.11
2017-12-17T05:23:50.820Z,5.07
2017-12-17T05:24:16.920Z,5.04
2017-12-17T05:24:43.020Z,4.93
2017-12-17T05:25:09.123Z,4.96
2017-12-17T05:25:35.225Z,4.97
2017-12-17T05:26:01.322Z,4.86
2017-12-17T05:26:27.426Z,4.89
2017-12-17T05:26:53.525Z,4.8
2017-12-17T05:27:19.616Z,4.75
2017-12-17T05:27:45.716Z,4.8
2017-12-17T05:28:11.817Z,4.8
2017-12-17T05:28:37.919Z,4.84
2017-12-17T05:29:04.018Z,4.75
2017-12-17T05:29:30.116Z,4.77
2017-12-17T05:29:56.215Z,4.86
2017-12-17T05:30:22.311Z,4.86
2017-12-17T05:30:48.415Z,4.86
2017-12-17T05:31:14.534Z,4.9
2017-12-17T05:31:40.704Z,4.84
2017-12-17T05:32:06.739Z,4.92
2017-12-17T05:32:32.847Z,4.78
2017-12-17T05:32:58.947Z,4.8
2017-12-17T05:33:25.043Z,4.75
2017-12-17T05:33:51.138Z,4.73
2017-12-17T05:34:17.244Z,4.77
2017-12-17T05:34:43.345Z,4.77
2017-12-17T05:35:09.443Z,4.8
2017-12-17T05:35:35.544Z,4.78
2017-12-17T05:36:01.638Z,4.75
2017-12-17T05:36:27.757Z,4.75
2017-12-17T05:36:53.859Z,4.8
2017-12-17T05:37:19.959Z,4.77
2017-12-17T05:37:46.056Z,4.77
2017-12-17T05:38:12.151Z,4.73
2017-12-17T05:38:38.254Z,4.73
2017-12-17T05:39:04.349Z,4.73
2017-12-17T05:39:30.448Z,4.73
2017-12-17T05:39:56.552Z,4.67
2017-12-17T05:40:22.647Z,4.7
2017-12-17T05:40:48.751Z,4.68
2017-12-17T05:41:14.846Z,4.66
2017-12-17T05:41:40.943Z,4.55
2017-12-17T05:42:07.048Z,4.58
2017-12-17T05:42:33.180Z,4.53
2017-12-17T05:42:59.274Z,4.48
2017-12-17T05:43:25.373Z,4.55
2017-12-17T05:43:51.478Z,4.58
2017-12-17T05:44:17.574Z,4.6
2017-12-17T05:44:43.678Z,4.55
2017-12-17T05:45:10.165Z,4.6
2017-12-17T05:45:36.270Z,4.56
2017-12-17T05:46:02.367Z,4.6
2017-12-17T05:46:28.464Z,4.56
2017-12-17T05:46:54.560Z,4.62
2017-12-17T05:47:20.662Z,4.7
2017-12-17T05:47:46.761Z,4.63
2017-12-17T05:48:12.867Z,4.63
2017-12-17T05:48:38.963Z,4.63